sensor_id;sensor_type;location;lat;lon;timestamp;P1;durP1;ratioP1;P2;durP2;ratioP2
68216;SDS011;55037;52.354;4.992;2023-05-10T00:02:17;63.45;;;24.08;;
68216;SDS011;55037;52.354;4.992;2023-05-10T00:04:45;65.38;;;25.33;;
68216;SDS011;55037;52.354;4.992;2023-05-10T00:07:12;65.57;;;26.13;;
68216;SDS011;55037;52.354;4.992;2023-05-10T00:09:39;81.07;;;26.33;;
68216;SDS011;55037;52.354;4.992;2023-05-10T00:12:06;73.13;;;27.25;;
68216;SDS011;55037;52.354;4.992;2023-05-10T00:14:33;74.30;;;26.00;;
68216;SDS011;55037;52.354;4.992;2023-05-10T00:17:01;79.18;;;25.95;;
68216;SDS011;55037;52.354;4.992;2023-05-10T00:19:28;69.90;;;22.83;;
68216;SDS011;55037;52.354;4.992;2023-05-10T00:21:55;58.53;;;21.42;;
68216;SDS011;55037;52.354;4.992;2023-05-10T00:24:23;69.05;;;22.35;;
68216;SDS011;55037;52.354;4.992;2023-05-10T00:26:50;83.32;;;25.45;;
68216;SDS011;55037;52.354;4.992;2023-05-10T00:29:18;87.15;;;25.75;;
68216;SDS011;55037;52.354;4.992;2023-05-10T00:31:46;95.83;;;27.30;;
68216;SDS011;55037;52.354;4.992;2023-05-10T00:34:14;84.43;;;26.17;;
68216;SDS011;55037;52.354;4.992;2023-05-10T00:36:41;90.68;;;28.55;;
68216;SDS011;55037;52.354;4.992;2023-05-10T00:39:08;92.75;;;29.17;;
68216;SDS011;55037;52.354;4.992;2023-05-10T00:41:35;93.40;;;28.25;;
68216;SDS011;55037;52.354;4.992;2023-05-10T00:44:05;91.13;;;29.53;;
68216;SDS011;55037;52.354;4.992;2023-05-10T00:46:32;76.05;;;26.33;;
68216;SDS011;55037;52.354;4.992;2023-05-10T00:48:59;88.50;;;28.80;;
68216;SDS011;55037;52.354;4.992;2023-05-10T00:51:27;85.95;;;27.65;;
68216;SDS011;55037;52.354;4.992;2023-05-10T00:53:54;76.35;;;26.77;;
68216;SDS011;55037;52.354;4.992;2023-05-10T00:56:22;72.73;;;26.57;;
68216;SDS011;55037;52.354;4.992;2023-05-10T00:58:51;91.22;;;29.13;;
68216;SDS011;55037;52.354;4.992;2023-05-10T01:01:19;75.90;;;25.33;;
68216;SDS011;55037;52.354;4.992;2023-05-10T01:03:47;63.78;;;23.70;;
68216;SDS011;55037;52.354;4.992;2023-05-10T01:06:15;74.53;;;25.25;;
68216;SDS011;55037;52.354;4.992;2023-05-10T01:08:42;84.83;;;29.10;;
68216;SDS011;55037;52.354;4.992;2023-05-10T01:11:09;90.28;;;29.42;;
68216;SDS011;55037;52.354;4.992;2023-05-10T01:13:37;70.32;;;23.63;;
68216;SDS011;55037;52.354;4.992;2023-05-10T01:16:06;59.95;;;20.70;;
68216;SDS011;55037;52.354;4.992;2023-05-10T01:18:34;68.35;;;23.23;;
68216;SDS011;55037;52.354;4.992;2023-05-10T01:30:08;73.35;;;24.65;;
68216;SDS011;55037;52.354;4.992;2023-05-10T01:32:43;73.57;;;26.38;;
68216;SDS011;55037;52.354;4.992;2023-05-10T01:35:32;78.20;;;27.17;;
68216;SDS011;55037;52.354;4.992;2023-05-10T01:38:04;90.30;;;30.77;;
68216;SDS011;55037;52.354;4.992;2023-05-10T01:41:14;78.80;;;25.65;;
68216;SDS011;55037;52.354;4.992;2023-05-10T01:43:54;89.97;;;30.95;;
68216;SDS011;55037;52.354;4.992;2023-05-10T01:46:28;82.47;;;30.63;;
68216;SDS011;55037;52.354;4.992;2023-05-10T01:49:07;76.33;;;28.23;;
68216;SDS011;55037;52.354;4.992;2023-05-10T01:51:41;86.55;;;31.17;;
68216;SDS011;55037;52.354;4.992;2023-05-10T01:54:14;85.13;;;27.88;;
68216;SDS011;55037;52.354;4.992;2023-05-10T01:56:47;68.38;;;25.30;;
68216;SDS011;55037;52.354;4.992;2023-05-10T01:59:19;64.82;;;24.60;;
68216;SDS011;55037;52.354;4.992;2023-05-10T02:01:52;78.83;;;27.60;;
68216;SDS011;55037;52.354;4.992;2023-05-10T02:04:20;86.55;;;32.50;;
68216;SDS011;55037;52.354;4.992;2023-05-10T02:06:50;76.75;;;29.45;;
68216;SDS011;55037;52.354;4.992;2023-05-10T02:09:19;72.78;;;26.38;;
68216;SDS011;55037;52.354;4.992;2023-05-10T02:11:48;83.80;;;27.48;;
68216;SDS011;55037;52.354;4.992;2023-05-10T02:14:16;96.10;;;32.03;;
68216;SDS011;55037;52.354;4.992;2023-05-10T02:16:45;94.43;;;31.88;;
68216;SDS011;55037;52.354;4.992;2023-05-10T02:19:13;82.95;;;28.90;;
68216;SDS011;55037;52.354;4.992;2023-05-10T02:21:42;78.85;;;28.00;;
68216;SDS011;55037;52.354;4.992;2023-05-10T02:24:11;97.10;;;31.88;;
68216;SDS011;55037;52.354;4.992;2023-05-10T02:26:39;90.93;;;31.95;;
68216;SDS011;55037;52.354;4.992;2023-05-10T02:29:08;103.28;;;33.95;;
68216;SDS011;55037;52.354;4.992;2023-05-10T02:31:36;77.43;;;28.80;;
68216;SDS011;55037;52.354;4.992;2023-05-10T02:34:05;83.82;;;26.88;;
68216;SDS011;55037;52.354;4.992;2023-05-10T02:36:34;99.10;;;33.08;;
68216;SDS011;55037;52.354;4.992;2023-05-10T02:39:04;101.95;;;34.97;;
68216;SDS011;55037;52.354;4.992;2023-05-10T02:41:36;117.43;;;34.83;;
68216;SDS011;55037;52.354;4.992;2023-05-10T02:44:04;101.55;;;31.33;;
68216;SDS011;55037;52.354;4.992;2023-05-10T02:46:34;103.63;;;32.80;;
68216;SDS011;55037;52.354;4.992;2023-05-10T02:49:03;96.38;;;30.23;;
68216;SDS011;55037;52.354;4.992;2023-05-10T02:51:31;76.33;;;24.63;;
68216;SDS011;55037;52.354;4.992;2023-05-10T02:54:03;79.95;;;26.52;;
68216;SDS011;55037;52.354;4.992;2023-05-10T02:56:37;81.20;;;26.52;;
68216;SDS011;55037;52.354;4.992;2023-05-10T02:59:09;92.28;;;27.23;;
68216;SDS011;55037;52.354;4.992;2023-05-10T03:01:36;62.70;;;23.40;;
68216;SDS011;55037;52.354;4.992;2023-05-10T03:04:03;61.85;;;22.55;;
68216;SDS011;55037;52.354;4.992;2023-05-10T03:06:31;64.20;;;23.35;;
68216;SDS011;55037;52.354;4.992;2023-05-10T03:08:58;67.20;;;25.08;;
68216;SDS011;55037;52.354;4.992;2023-05-10T03:14:16;69.57;;;24.73;;
68216;SDS011;55037;52.354;4.992;2023-05-10T03:16:52;73.93;;;24.33;;
68216;SDS011;55037;52.354;4.992;2023-05-10T03:21:59;61.53;;;21.85;;
68216;SDS011;55037;52.354;4.992;2023-05-10T03:24:34;62.83;;;21.85;;
68216;SDS011;55037;52.354;4.992;2023-05-10T03:27:03;61.75;;;19.83;;
68216;SDS011;55037;52.354;4.992;2023-05-10T03:29:31;68.37;;;22.93;;
68216;SDS011;55037;52.354;4.992;2023-05-10T03:31:59;65.43;;;23.00;;
68216;SDS011;55037;52.354;4.992;2023-05-10T03:34:29;66.35;;;23.10;;
68216;SDS011;55037;52.354;4.992;2023-05-10T03:36:58;65.28;;;23.02;;
68216;SDS011;55037;52.354;4.992;2023-05-10T03:39:28;61.53;;;21.85;;
68216;SDS011;55037;52.354;4.992;2023-05-10T03:41:58;78.33;;;26.10;;
68216;SDS011;55037;52.354;4.992;2023-05-10T03:44:25;86.78;;;27.38;;
68216;SDS011;55037;52.354;4.992;2023-05-10T03:46:52;83.05;;;26.98;;
68216;SDS011;55037;52.354;4.992;2023-05-10T03:49:20;79.13;;;26.20;;
68216;SDS011;55037;52.354;4.992;2023-05-10T03:51:49;92.47;;;26.98;;
68216;SDS011;55037;52.354;4.992;2023-05-10T03:54:16;90.90;;;26.35;;
68216;SDS011;55037;52.354;4.992;2023-05-10T03:56:43;106.03;;;28.10;;
68216;SDS011;55037;52.354;4.992;2023-05-10T03:59:11;93.10;;;26.20;;
68216;SDS011;55037;52.354;4.992;2023-05-10T04:01:38;98.03;;;23.52;;
68216;SDS011;55037;52.354;4.992;2023-05-10T04:04:05;66.03;;;19.63;;
68216;SDS011;55037;52.354;4.992;2023-05-10T04:06:33;63.57;;;20.90;;
68216;SDS011;55037;52.354;4.992;2023-05-10T04:09:00;61.25;;;18.80;;
68216;SDS011;55037;52.354;4.992;2023-05-10T04:11:30;62.45;;;20.90;;
68216;SDS011;55037;52.354;4.992;2023-05-10T04:13:57;59.78;;;21.25;;
68216;SDS011;55037;52.354;4.992;2023-05-10T04:16:25;63.42;;;23.42;;
68216;SDS011;55037;52.354;4.992;2023-05-10T04:18:52;63.70;;;22.07;;
68216;SDS011;55037;52.354;4.992;2023-05-10T04:21:20;56.70;;;21.48;;
68216;SDS011;55037;52.354;4.992;2023-05-10T04:23:47;62.38;;;23.13;;
68216;SDS011;55037;52.354;4.992;2023-05-10T04:26:14;65.00;;;22.10;;
68216;SDS011;55037;52.354;4.992;2023-05-10T04:28:42;56.28;;;22.45;;
68216;SDS011;55037;52.354;4.992;2023-05-10T04:31:09;50.53;;;19.97;;
68216;SDS011;55037;52.354;4.992;2023-05-10T04:33:37;57.28;;;19.77;;
68216;SDS011;55037;52.354;4.992;2023-05-10T04:36:04;55.65;;;19.40;;
68216;SDS011;55037;52.354;4.992;2023-05-10T04:38:32;53.15;;;19.30;;
68216;SDS011;55037;52.354;4.992;2023-05-10T04:41:06;66.80;;;22.45;;
68216;SDS011;55037;52.354;4.992;2023-05-10T04:43:34;63.40;;;21.77;;
68216;SDS011;55037;52.354;4.992;2023-05-10T04:46:02;55.60;;;19.35;;
68216;SDS011;55037;52.354;4.992;2023-05-10T04:48:29;55.00;;;21.30;;
68216;SDS011;55037;52.354;4.992;2023-05-10T04:50:57;52.50;;;19.63;;
68216;SDS011;55037;52.354;4.992;2023-05-10T04:53:24;61.75;;;21.77;;
68216;SDS011;55037;52.354;4.992;2023-05-10T04:55:53;54.90;;;22.17;;
68216;SDS011;55037;52.354;4.992;2023-05-10T04:58:21;56.20;;;19.35;;
68216;SDS011;55037;52.354;4.992;2023-05-10T05:00:48;51.17;;;19.42;;
68216;SDS011;55037;52.354;4.992;2023-05-10T05:03:15;58.67;;;23.25;;
68216;SDS011;55037;52.354;4.992;2023-05-10T05:05:43;49.40;;;18.35;;
68216;SDS011;55037;52.354;4.992;2023-05-10T05:08:11;51.63;;;20.07;;
68216;SDS011;55037;52.354;4.992;2023-05-10T05:10:39;50.60;;;19.40;;
68216;SDS011;55037;52.354;4.992;2023-05-10T05:13:06;41.65;;;17.80;;
68216;SDS011;55037;52.354;4.992;2023-05-10T05:15:33;52.55;;;19.98;;
68216;SDS011;55037;52.354;4.992;2023-05-10T05:18:01;63.58;;;20.75;;
68216;SDS011;55037;52.354;4.992;2023-05-10T05:20:31;56.83;;;19.90;;
68216;SDS011;55037;52.354;4.992;2023-05-10T05:23:01;55.22;;;19.40;;
68216;SDS011;55037;52.354;4.992;2023-05-10T05:25:28;59.03;;;19.23;;
68216;SDS011;55037;52.354;4.992;2023-05-10T05:27:56;56.33;;;19.38;;
68216;SDS011;55037;52.354;4.992;2023-05-10T05:30:23;43.95;;;18.17;;
68216;SDS011;55037;52.354;4.992;2023-05-10T05:32:50;44.40;;;17.17;;
68216;SDS011;55037;52.354;4.992;2023-05-10T05:35:18;44.38;;;17.67;;
68216;SDS011;55037;52.354;4.992;2023-05-10T05:37:45;40.72;;;16.38;;
68216;SDS011;55037;52.354;4.992;2023-05-10T05:40:13;37.80;;;16.00;;
68216;SDS011;55037;52.354;4.992;2023-05-10T05:42:40;38.95;;;16.33;;
68216;SDS011;55037;52.354;4.992;2023-05-10T05:45:08;35.10;;;15.43;;
68216;SDS011;55037;52.354;4.992;2023-05-10T05:47:39;34.67;;;15.30;;
68216;SDS011;55037;52.354;4.992;2023-05-10T05:50:07;27.90;;;13.55;;
68216;SDS011;55037;52.354;4.992;2023-05-10T05:52:34;31.20;;;13.63;;
68216;SDS011;55037;52.354;4.992;2023-05-10T05:55:02;29.90;;;12.75;;
68216;SDS011;55037;52.354;4.992;2023-05-10T05:57:30;34.05;;;14.00;;
68216;SDS011;55037;52.354;4.992;2023-05-10T05:59:57;31.55;;;13.30;;
68216;SDS011;55037;52.354;4.992;2023-05-10T06:02:24;34.92;;;14.52;;
68216;SDS011;55037;52.354;4.992;2023-05-10T06:04:52;37.45;;;14.82;;
68216;SDS011;55037;52.354;4.992;2023-05-10T06:07:19;33.50;;;13.77;;
68216;SDS011;55037;52.354;4.992;2023-05-10T06:09:46;33.67;;;13.87;;
68216;SDS011;55037;52.354;4.992;2023-05-10T06:12:14;24.88;;;12.55;;
68216;SDS011;55037;52.354;4.992;2023-05-10T06:14:41;31.48;;;13.68;;
68216;SDS011;55037;52.354;4.992;2023-05-10T06:17:08;30.25;;;12.27;;
68216;SDS011;55037;52.354;4.992;2023-05-10T06:19:35;27.08;;;13.40;;
68216;SDS011;55037;52.354;4.992;2023-05-10T06:22:03;32.43;;;13.60;;
68216;SDS011;55037;52.354;4.992;2023-05-10T06:24:30;22.92;;;11.88;;
68216;SDS011;55037;52.354;4.992;2023-05-10T06:26:57;23.10;;;11.30;;
68216;SDS011;55037;52.354;4.992;2023-05-10T06:29:26;20.95;;;10.80;;
68216;SDS011;55037;52.354;4.992;2023-05-10T06:31:53;21.17;;;10.30;;
68216;SDS011;55037;52.354;4.992;2023-05-10T06:34:21;27.10;;;12.35;;
68216;SDS011;55037;52.354;4.992;2023-05-10T06:36:48;23.13;;;11.48;;
68216;SDS011;55037;52.354;4.992;2023-05-10T06:39:16;20.45;;;11.27;;
68216;SDS011;55037;52.354;4.992;2023-05-10T06:41:43;23.38;;;12.68;;
68216;SDS011;55037;52.354;4.992;2023-05-10T06:44:10;25.33;;;12.63;;
68216;SDS011;55037;52.354;4.992;2023-05-10T06:46:37;30.65;;;13.18;;
68216;SDS011;55037;52.354;4.992;2023-05-10T06:49:05;28.70;;;12.73;;
68216;SDS011;55037;52.354;4.992;2023-05-10T06:51:32;33.50;;;14.45;;
68216;SDS011;55037;52.354;4.992;2023-05-10T06:54:00;25.02;;;13.25;;
68216;SDS011;55037;52.354;4.992;2023-05-10T06:56:27;31.35;;;14.32;;
68216;SDS011;55037;52.354;4.992;2023-05-10T06:58:55;27.60;;;13.73;;
68216;SDS011;55037;52.354;4.992;2023-05-10T07:01:22;25.30;;;12.10;;
68216;SDS011;55037;52.354;4.992;2023-05-10T07:03:50;26.65;;;12.93;;
68216;SDS011;55037;52.354;4.992;2023-05-10T07:06:17;22.50;;;12.68;;
68216;SDS011;55037;52.354;4.992;2023-05-10T07:08:58;21.73;;;9.57;;
68216;SDS011;55037;52.354;4.992;2023-05-10T07:11:27;15.90;;;9.60;;
68216;SDS011;55037;52.354;4.992;2023-05-10T07:13:54;20.15;;;10.02;;
68216;SDS011;55037;52.354;4.992;2023-05-10T07:16:21;19.42;;;9.93;;
68216;SDS011;55037;52.354;4.992;2023-05-10T07:18:48;17.13;;;8.85;;
68216;SDS011;55037;52.354;4.992;2023-05-10T07:21:17;19.58;;;8.95;;
68216;SDS011;55037;52.354;4.992;2023-05-10T07:23:44;14.63;;;8.48;;
68216;SDS011;55037;52.354;4.992;2023-05-10T07:26:11;14.15;;;7.78;;
68216;SDS011;55037;52.354;4.992;2023-05-10T07:28:39;17.00;;;9.23;;
68216;SDS011;55037;52.354;4.992;2023-05-10T07:31:06;17.25;;;9.75;;
68216;SDS011;55037;52.354;4.992;2023-05-10T07:33:33;21.58;;;9.23;;
68216;SDS011;55037;52.354;4.992;2023-05-10T07:36:00;22.60;;;9.65;;
68216;SDS011;55037;52.354;4.992;2023-05-10T07:38:28;18.85;;;11.10;;
68216;SDS011;55037;52.354;4.992;2023-05-10T07:40:55;22.63;;;11.70;;
68216;SDS011;55037;52.354;4.992;2023-05-10T07:43:22;18.50;;;10.52;;
68216;SDS011;55037;52.354;4.992;2023-05-10T07:45:49;15.93;;;9.43;;
68216;SDS011;55037;52.354;4.992;2023-05-10T07:48:19;22.57;;;10.50;;
68216;SDS011;55037;52.354;4.992;2023-05-10T07:50:46;23.58;;;12.75;;
68216;SDS011;55037;52.354;4.992;2023-05-10T07:53:14;23.58;;;12.27;;
68216;SDS011;55037;52.354;4.992;2023-05-10T07:55:41;24.52;;;12.55;;
68216;SDS011;55037;52.354;4.992;2023-05-10T07:58:08;23.83;;;13.60;;
68216;SDS011;55037;52.354;4.992;2023-05-10T08:00:35;19.38;;;12.35;;
68216;SDS011;55037;52.354;4.992;2023-05-10T08:03:05;25.60;;;13.48;;
68216;SDS011;55037;52.354;4.992;2023-05-10T08:05:33;23.05;;;12.57;;
68216;SDS011;55037;52.354;4.992;2023-05-10T08:08:01;20.52;;;11.50;;
68216;SDS011;55037;52.354;4.992;2023-05-10T08:10:28;23.42;;;14.73;;
68216;SDS011;55037;52.354;4.992;2023-05-10T08:12:56;24.25;;;14.60;;
68216;SDS011;55037;52.354;4.992;2023-05-10T08:15:24;25.70;;;12.90;;
68216;SDS011;55037;52.354;4.992;2023-05-10T08:17:52;24.00;;;13.90;;
68216;SDS011;55037;52.354;4.992;2023-05-10T08:20:19;24.80;;;13.65;;
68216;SDS011;55037;52.354;4.992;2023-05-10T08:22:47;20.95;;;13.32;;
68216;SDS011;55037;52.354;4.992;2023-05-10T08:25:17;19.98;;;12.32;;
68216;SDS011;55037;52.354;4.992;2023-05-10T08:27:45;22.83;;;12.32;;
68216;SDS011;55037;52.354;4.992;2023-05-10T08:30:15;18.95;;;13.23;;
68216;SDS011;55037;52.354;4.992;2023-05-10T08:32:42;20.58;;;13.05;;
68216;SDS011;55037;52.354;4.992;2023-05-10T08:35:09;17.65;;;11.55;;
68216;SDS011;55037;52.354;4.992;2023-05-10T08:37:36;13.60;;;9.20;;
68216;SDS011;55037;52.354;4.992;2023-05-10T08:40:04;13.35;;;8.60;;
68216;SDS011;55037;52.354;4.992;2023-05-10T08:42:33;12.98;;;8.40;;
68216;SDS011;55037;52.354;4.992;2023-05-10T08:45:02;11.32;;;7.55;;
68216;SDS011;55037;52.354;4.992;2023-05-10T08:47:31;11.63;;;8.25;;
68216;SDS011;55037;52.354;4.992;2023-05-10T08:49:58;9.50;;;7.07;;
68216;SDS011;55037;52.354;4.992;2023-05-10T08:52:26;11.95;;;6.72;;
68216;SDS011;55037;52.354;4.992;2023-05-10T08:54:56;8.93;;;7.00;;
68216;SDS011;55037;52.354;4.992;2023-05-10T08:57:23;9.77;;;6.85;;
68216;SDS011;55037;52.354;4.992;2023-05-10T08:59:51;9.00;;;6.07;;
68216;SDS011;55037;52.354;4.992;2023-05-10T09:02:18;9.60;;;6.18;;
68216;SDS011;55037;52.354;4.992;2023-05-10T09:04:47;9.40;;;6.05;;
68216;SDS011;55037;52.354;4.992;2023-05-10T09:07:16;8.52;;;5.43;;
68216;SDS011;55037;52.354;4.992;2023-05-10T09:09:43;10.85;;;5.55;;
68216;SDS011;55037;52.354;4.992;2023-05-10T09:12:12;9.35;;;5.60;;
68216;SDS011;55037;52.354;4.992;2023-05-10T09:14:42;10.20;;;5.43;;
68216;SDS011;55037;52.354;4.992;2023-05-10T09:17:11;7.05;;;5.18;;
68216;SDS011;55037;52.354;4.992;2023-05-10T09:19:38;7.97;;;5.10;;
68216;SDS011;55037;52.354;4.992;2023-05-10T09:22:05;9.35;;;5.43;;
68216;SDS011;55037;52.354;4.992;2023-05-10T09:24:33;7.93;;;4.85;;
68216;SDS011;55037;52.354;4.992;2023-05-10T09:27:01;7.45;;;4.90;;
68216;SDS011;55037;52.354;4.992;2023-05-10T09:29:38;7.28;;;5.60;;
68216;SDS011;55037;52.354;4.992;2023-05-10T09:32:09;7.93;;;5.05;;
68216;SDS011;55037;52.354;4.992;2023-05-10T09:34:36;8.55;;;5.18;;
68216;SDS011;55037;52.354;4.992;2023-05-10T09:37:06;8.15;;;4.75;;
68216;SDS011;55037;52.354;4.992;2023-05-10T09:39:35;6.50;;;4.20;;
68216;SDS011;55037;52.354;4.992;2023-05-10T09:42:04;5.57;;;4.13;;
68216;SDS011;55037;52.354;4.992;2023-05-10T09:44:33;7.18;;;4.40;;
68216;SDS011;55037;52.354;4.992;2023-05-10T09:47:01;5.68;;;3.80;;
68216;SDS011;55037;52.354;4.992;2023-05-10T09:49:29;5.72;;;3.85;;
68216;SDS011;55037;52.354;4.992;2023-05-10T09:52:03;7.70;;;4.78;;
68216;SDS011;55037;52.354;4.992;2023-05-10T09:54:32;7.22;;;4.35;;
68216;SDS011;55037;52.354;4.992;2023-05-10T09:57:00;7.32;;;4.32;;
68216;SDS011;55037;52.354;4.992;2023-05-10T09:59:28;7.72;;;4.60;;
68216;SDS011;55037;52.354;4.992;2023-05-10T10:01:56;8.15;;;4.45;;
68216;SDS011;55037;52.354;4.992;2023-05-10T10:04:28;5.65;;;3.72;;
68216;SDS011;55037;52.354;4.992;2023-05-10T10:06:59;7.85;;;4.28;;
68216;SDS011;55037;52.354;4.992;2023-05-10T10:09:31;8.38;;;4.50;;
68216;SDS011;55037;52.354;4.992;2023-05-10T10:11:59;8.55;;;4.28;;
68216;SDS011;55037;52.354;4.992;2023-05-10T10:14:27;8.45;;;3.88;;
68216;SDS011;55037;52.354;4.992;2023-05-10T10:16:55;6.05;;;3.25;;
68216;SDS011;55037;52.354;4.992;2023-05-10T10:19:34;6.38;;;3.15;;
68216;SDS011;55037;52.354;4.992;2023-05-10T10:22:02;9.52;;;3.35;;
68216;SDS011;55037;52.354;4.992;2023-05-10T10:24:30;6.70;;;3.30;;
68216;SDS011;55037;52.354;4.992;2023-05-10T10:26:59;6.30;;;3.35;;
68216;SDS011;55037;52.354;4.992;2023-05-10T10:29:40;7.53;;;4.18;;
68216;SDS011;55037;52.354;4.992;2023-05-10T10:34:47;6.85;;;3.65;;
68216;SDS011;55037;52.354;4.992;2023-05-10T10:37:14;6.35;;;3.88;;
68216;SDS011;55037;52.354;4.992;2023-05-10T10:39:42;6.45;;;4.28;;
68216;SDS011;55037;52.354;4.992;2023-05-10T10:42:09;7.47;;;4.28;;
68216;SDS011;55037;52.354;4.992;2023-05-10T10:44:37;5.63;;;3.92;;
68216;SDS011;55037;52.354;4.992;2023-05-10T10:49:43;7.15;;;4.47;;
68216;SDS011;55037;52.354;4.992;2023-05-10T10:52:42;5.82;;;3.85;;
68216;SDS011;55037;52.354;4.992;2023-05-10T10:55:14;6.97;;;3.33;;
68216;SDS011;55037;52.354;4.992;2023-05-10T10:57:48;5.95;;;3.40;;
68216;SDS011;55037;52.354;4.992;2023-05-10T11:03:11;5.80;;;3.22;;
68216;SDS011;55037;52.354;4.992;2023-05-10T11:21:32;7.55;;;3.50;;
68216;SDS011;55037;52.354;4.992;2023-05-10T11:24:01;6.82;;;3.42;;
68216;SDS011;55037;52.354;4.992;2023-05-10T11:26:36;5.40;;;3.47;;
68216;SDS011;55037;52.354;4.992;2023-05-10T11:29:03;6.00;;;3.58;;
68216;SDS011;55037;52.354;4.992;2023-05-10T11:31:31;5.90;;;3.40;;
68216;SDS011;55037;52.354;4.992;2023-05-10T11:34:04;7.35;;;3.10;;
68216;SDS011;55037;52.354;4.992;2023-05-10T11:36:35;5.03;;;3.40;;
68216;SDS011;55037;52.354;4.992;2023-05-10T11:39:03;5.50;;;3.25;;
68216;SDS011;55037;52.354;4.992;2023-05-10T11:41:31;5.32;;;3.20;;
68216;SDS011;55037;52.354;4.992;2023-05-10T11:43:58;6.70;;;3.17;;
68216;SDS011;55037;52.354;4.992;2023-05-10T11:46:26;7.00;;;3.75;;
68216;SDS011;55037;52.354;4.992;2023-05-10T11:48:59;5.72;;;3.58;;
68216;SDS011;55037;52.354;4.992;2023-05-10T11:51:34;8.57;;;3.63;;
68216;SDS011;55037;52.354;4.992;2023-05-10T11:54:06;6.30;;;3.40;;
68216;SDS011;55037;52.354;4.992;2023-05-10T11:56:36;5.75;;;3.63;;
68216;SDS011;55037;52.354;4.992;2023-05-10T11:59:04;5.40;;;3.47;;
68216;SDS011;55037;52.354;4.992;2023-05-10T12:01:32;6.93;;;3.63;;
68216;SDS011;55037;52.354;4.992;2023-05-10T12:04:00;7.88;;;4.20;;
68216;SDS011;55037;52.354;4.992;2023-05-10T12:06:31;7.80;;;3.80;;
68216;SDS011;55037;52.354;4.992;2023-05-10T12:09:01;7.50;;;4.47;;
68216;SDS011;55037;52.354;4.992;2023-05-10T12:11:38;9.25;;;5.28;;
68216;SDS011;55037;52.354;4.992;2023-05-10T12:14:10;7.25;;;4.80;;
68216;SDS011;55037;52.354;4.992;2023-05-10T12:16:37;7.10;;;4.45;;
68216;SDS011;55037;52.354;4.992;2023-05-10T12:19:05;10.82;;;5.68;;
68216;SDS011;55037;52.354;4.992;2023-05-10T12:21:32;9.32;;;5.63;;
68216;SDS011;55037;52.354;4.992;2023-05-10T12:24:01;9.93;;;5.80;;
68216;SDS011;55037;52.354;4.992;2023-05-10T12:26:30;8.50;;;5.60;;
68216;SDS011;55037;52.354;4.992;2023-05-10T12:29:13;10.82;;;5.68;;
68216;SDS011;55037;52.354;4.992;2023-05-10T12:31:58;9.45;;;5.78;;
68216;SDS011;55037;52.354;4.992;2023-05-10T12:34:29;13.07;;;5.78;;
68216;SDS011;55037;52.354;4.992;2023-05-10T12:36:57;9.10;;;5.72;;
68216;SDS011;55037;52.354;4.992;2023-05-10T12:39:25;9.07;;;5.05;;
68216;SDS011;55037;52.354;4.992;2023-05-10T12:41:52;10.52;;;5.05;;
68216;SDS011;55037;52.354;4.992;2023-05-10T12:44:19;12.13;;;6.50;;
68216;SDS011;55037;52.354;4.992;2023-05-10T12:46:47;11.93;;;5.25;;
68216;SDS011;55037;52.354;4.992;2023-05-10T12:49:14;11.68;;;6.13;;
68216;SDS011;55037;52.354;4.992;2023-05-10T12:51:41;10.70;;;5.15;;
68216;SDS011;55037;52.354;4.992;2023-05-10T12:54:08;10.52;;;5.30;;
68216;SDS011;55037;52.354;4.992;2023-05-10T12:56:36;8.82;;;4.80;;
68216;SDS011;55037;52.354;4.992;2023-05-10T12:59:03;8.23;;;4.05;;
68216;SDS011;55037;52.354;4.992;2023-05-10T13:01:31;8.02;;;4.10;;
68216;SDS011;55037;52.354;4.992;2023-05-10T13:03:58;7.77;;;4.90;;
68216;SDS011;55037;52.354;4.992;2023-05-10T13:06:27;9.27;;;4.53;;
68216;SDS011;55037;52.354;4.992;2023-05-10T13:08:55;7.95;;;4.47;;
68216;SDS011;55037;52.354;4.992;2023-05-10T13:11:24;9.90;;;5.53;;
68216;SDS011;55037;52.354;4.992;2023-05-10T13:13:54;7.15;;;5.18;;
68216;SDS011;55037;52.354;4.992;2023-05-10T13:16:22;8.93;;;5.38;;
68216;SDS011;55037;52.354;4.992;2023-05-10T13:18:49;8.23;;;4.95;;
68216;SDS011;55037;52.354;4.992;2023-05-10T13:21:17;7.30;;;4.25;;
68216;SDS011;55037;52.354;4.992;2023-05-10T13:23:44;7.90;;;4.47;;
68216;SDS011;55037;52.354;4.992;2023-05-10T13:26:13;5.97;;;3.50;;
68216;SDS011;55037;52.354;4.992;2023-05-10T13:28:40;5.50;;;3.43;;
68216;SDS011;55037;52.354;4.992;2023-05-10T13:31:07;5.35;;;3.90;;
68216;SDS011;55037;52.354;4.992;2023-05-10T13:33:34;5.05;;;3.10;;
68216;SDS011;55037;52.354;4.992;2023-05-10T13:36:02;5.90;;;3.25;;
68216;SDS011;55037;52.354;4.992;2023-05-10T13:38:29;6.20;;;4.05;;
68216;SDS011;55037;52.354;4.992;2023-05-10T13:40:56;6.67;;;4.03;;
68216;SDS011;55037;52.354;4.992;2023-05-10T13:43:23;5.30;;;3.78;;
68216;SDS011;55037;52.354;4.992;2023-05-10T13:45:50;5.15;;;3.70;;
68216;SDS011;55037;52.354;4.992;2023-05-10T13:48:18;5.50;;;3.63;;
68216;SDS011;55037;52.354;4.992;2023-05-10T13:50:46;6.70;;;4.20;;
68216;SDS011;55037;52.354;4.992;2023-05-10T13:53:13;5.50;;;3.50;;
68216;SDS011;55037;52.354;4.992;2023-05-10T13:55:41;5.10;;;3.78;;
68216;SDS011;55037;52.354;4.992;2023-05-10T13:58:08;5.30;;;3.85;;
68216;SDS011;55037;52.354;4.992;2023-05-10T14:00:35;6.97;;;4.10;;
68216;SDS011;55037;52.354;4.992;2023-05-10T14:03:03;9.52;;;4.22;;
68216;SDS011;55037;52.354;4.992;2023-05-10T14:05:32;6.90;;;3.47;;
68216;SDS011;55037;52.354;4.992;2023-05-10T14:07:59;5.93;;;3.80;;
68216;SDS011;55037;52.354;4.992;2023-05-10T14:10:26;10.00;;;4.88;;
68216;SDS011;55037;52.354;4.992;2023-05-10T14:12:53;7.93;;;4.82;;
68216;SDS011;55037;52.354;4.992;2023-05-10T14:15:20;8.95;;;4.93;;
68216;SDS011;55037;52.354;4.992;2023-05-10T14:17:48;9.10;;;4.65;;
68216;SDS011;55037;52.354;4.992;2023-05-10T14:20:15;6.50;;;4.20;;
68216;SDS011;55037;52.354;4.992;2023-05-10T14:22:42;9.68;;;4.63;;
68216;SDS011;55037;52.354;4.992;2023-05-10T14:25:09;8.63;;;4.75;;
68216;SDS011;55037;52.354;4.992;2023-05-10T14:27:38;9.43;;;5.07;;
68216;SDS011;55037;52.354;4.992;2023-05-10T14:30:05;8.60;;;5.07;;
68216;SDS011;55037;52.354;4.992;2023-05-10T14:32:33;9.32;;;5.05;;
68216;SDS011;55037;52.354;4.992;2023-05-10T14:35:00;8.25;;;4.93;;
68216;SDS011;55037;52.354;4.992;2023-05-10T14:37:28;9.90;;;4.88;;
68216;SDS011;55037;52.354;4.992;2023-05-10T14:39:55;8.52;;;4.38;;
68216;SDS011;55037;52.354;4.992;2023-05-10T14:42:22;8.53;;;4.83;;
68216;SDS011;55037;52.354;4.992;2023-05-10T14:44:49;7.32;;;4.05;;
68216;SDS011;55037;52.354;4.992;2023-05-10T14:47:17;6.50;;;4.07;;
68216;SDS011;55037;52.354;4.992;2023-05-10T14:49:44;7.95;;;4.10;;
68216;SDS011;55037;52.354;4.992;2023-05-10T14:52:11;7.25;;;4.25;;
68216;SDS011;55037;52.354;4.992;2023-05-10T14:54:38;9.03;;;4.33;;
68216;SDS011;55037;52.354;4.992;2023-05-10T14:57:06;6.43;;;4.20;;
68216;SDS011;55037;52.354;4.992;2023-05-10T14:59:34;5.38;;;3.03;;
68216;SDS011;55037;52.354;4.992;2023-05-10T15:02:01;6.90;;;3.70;;
68216;SDS011;55037;52.354;4.992;2023-05-10T15:04:31;6.15;;;3.17;;
68216;SDS011;55037;52.354;4.992;2023-05-10T15:06:59;4.45;;;2.97;;
68216;SDS011;55037;52.354;4.992;2023-05-10T15:09:27;5.43;;;3.38;;
68216;SDS011;55037;52.354;4.992;2023-05-10T15:11:54;5.57;;;2.92;;
68216;SDS011;55037;52.354;4.992;2023-05-10T15:14:22;4.97;;;3.30;;
68216;SDS011;55037;52.354;4.992;2023-05-10T15:16:49;4.15;;;3.15;;
68216;SDS011;55037;52.354;4.992;2023-05-10T15:19:17;5.87;;;3.27;;
68216;SDS011;55037;52.354;4.992;2023-05-10T15:21:44;5.80;;;3.17;;